Time;durP1;ratioP1;P1;durP2;ratioP2;P2;SDS_P1;SDS_P2;PMS_P1;PMS_P2;Temp;Humidity;BMP_temperature;BMP_pressure;BME280_temperature;BME280_humidity;BME280_pressure;Samples;Min_cycle;Max_cycle;Signal;HPM_P1;HPM_P2
2023/05/14 00:02:13;;;;;;;16.65;12.75;;;;;;;10.80;100.00;101371.50;4984988;28;20038;-67
2023/05/14 00:04:38;;;;;;;17.15;13.38;;;;;;;10.76;100.00;101373.22;4982878;28;20038;-67
2023/05/14 00:07:04;;;;;;;18.05;14.15;;;;;;;10.73;100.00;101368.03;4981390;28;20038;-67
2023/05/14 00:09:31;;;;;;;16.98;13.18;;;;;;;10.72;100.00;101368.03;4978265;28;20034;-67
2023/05/14 00:11:56;;;;;;;19.15;13.70;;;;;;;10.71;100.00;101368.91;4985919;28;20085;-67
2023/05/14 00:14:22;;;;;;;15.93;12.00;;;;;;;10.67;100.00;101364.59;4980771;28;20030;-67
2023/05/14 00:16:48;;;;;;;17.75;11.82;;;;;;;10.65;100.00;101366.31;4978500;28;20046;-67
2023/05/14 00:19:14;;;;;;;15.45;12.52;;;;;;;10.62;100.00;101374.91;4981240;28;20042;-67
2023/05/14 00:21:39;;;;;;;15.93;13.38;;;;;;;10.63;100.00;101373.19;4985488;28;20049;-67
2023/05/14 00:24:05;;;;;;;21.90;14.43;;;;;;;10.63;100.00;101370.59;4977025;28;20042;-66
2023/05/14 00:26:30;;;;;;;19.27;13.90;;;;;;;10.63;100.00;101375.78;4979094;28;20085;-67
2023/05/14 00:28:55;;;;;;;19.42;14.48;;;;;;;10.59;100.00;101367.19;4984512;28;20073;-67
2023/05/14 00:31:21;;;;;;;17.63;14.23;;;;;;;10.55;100.00;101370.59;4984300;28;20034;-67
2023/05/14 00:33:46;;;;;;;16.80;12.73;;;;;;;10.50;100.00;101363.72;4978006;28;20093;-67
2023/05/14 00:36:11;;;;;;;22.27;12.30;;;;;;;10.44;100.00;101366.28;4978721;28;20806;-67
2023/05/14 00:38:37;;;;;;;15.63;10.95;;;;;;;10.40;100.00;101359.38;4980575;28;20038;-67
2023/05/14 00:41:02;;;;;;;14.00;11.20;;;;;;;10.34;100.00;101357.66;4977850;28;20133;-67
2023/05/14 00:43:28;;;;;;;17.50;12.27;;;;;;;10.32;100.00;101361.09;4978472;28;20154;-67
2023/05/14 00:45:54;;;;;;;17.42;13.02;;;;;;;10.29;100.00;101353.34;4981570;28;20049;-67
2023/05/14 00:48:20;;;;;;;13.75;11.75;;;;;;;10.26;100.00;101356.78;4979888;28;20125;-67
2023/05/14 00:50:48;;;;;;;14.85;10.48;;;;;;;10.19;100.00;101349.84;5006804;28;20037;-67
2023/05/14 00:53:13;;;;;;;11.82;10.57;;;;;;;10.13;100.00;101350.72;4980098;28;20459;-67
2023/05/14 00:55:41;;;;;;;13.43;10.07;;;;;;;10.08;100.00;101357.59;4984517;28;20031;-66
2023/05/14 00:58:09;;;;;;;21.42;13.95;;;;;;;10.04;100.00;101352.41;4979066;28;20679;-66
2023/05/14 01:00:36;;;;;;;14.18;11.15;;;;;;;10.02;100.00;101351.53;4972983;28;20102;-67
2023/05/14 01:03:03;;;;;;;14.30;10.10;;;;;;;9.99;100.00;101356.69;4978901;28;20143;-66
2023/05/14 01:05:41;;;;;;;17.70;12.00;;;;;;;9.99;100.00;101354.97;4980358;28;20034;-66
2023/05/14 01:08:12;;;;;;;15.68;11.68;;;;;;;9.96;100.00;101352.38;4979660;28;20038;-67
2023/05/14 01:10:45;;;;;;;17.30;10.93;;;;;;;9.95;100.00;101355.81;4975272;28;20043;-67
2023/05/14 01:13:23;;;;;;;12.00;9.05;;;;;;;9.94;100.00;101354.06;4982286;28;20046;-67
2023/05/14 01:15:49;;;;;;;21.38;11.43;;;;;;;9.94;100.00;101361.00;4975967;28;20224;-66
2023/05/14 01:18:18;;;;;;;14.77;11.43;;;;;;;9.94;100.00;101355.81;4977980;28;20038;-67
2023/05/14 01:20:44;;;;;;;17.25;10.98;;;;;;;9.92;100.00;101352.34;4980138;28;20068;-67
2023/05/14 01:23:10;;;;;;;14.95;10.02;;;;;;;9.90;100.00;101354.06;4979628;28;20844;-67
2023/05/14 01:25:35;;;;;;;14.05;12.20;;;;;;;9.88;100.00;101355.81;4979461;28;20042;-67
2023/05/14 01:28:14;;;;;;;18.75;12.18;;;;;;;9.88;100.00;101350.63;4978763;28;20088;-67
2023/05/14 01:30:46;;;;;;;11.98;9.98;;;;;;;9.86;100.00;101353.19;4976029;28;20038;-67
2023/05/14 01:33:17;;;;;;;17.20;11.30;;;;;;;9.85;100.00;101345.47;4978768;28;20128;-67
2023/05/14 01:35:43;;;;;;;12.50;10.27;;;;;;;9.81;100.00;101344.56;4983060;28;20472;-67
2023/05/14 01:38:12;;;;;;;15.35;11.13;;;;;;;9.79;100.00;101343.72;4978447;28;21697;-67
2023/05/14 01:40:38;;;;;;;13.15;11.15;;;;;;;9.76;100.00;101337.69;4981087;28;20042;-67
2023/05/14 01:43:04;;;;;;;11.93;10.65;;;;;;;9.72;100.00;101344.53;4975318;28;20045;-67
2023/05/14 01:45:30;;;;;;;13.77;10.20;;;;;;;9.72;100.00;101341.09;4979388;28;20050;-67
2023/05/14 01:47:56;;;;;;;14.25;11.15;;;;;;;9.69;100.00;101336.78;4983285;28;20034;-66
2023/05/14 01:50:22;;;;;;;19.83;11.80;;;;;;;9.68;100.00;101341.06;4975858;28;20038;-66
2023/05/14 01:52:47;;;;;;;15.45;11.85;;;;;;;9.66;100.00;101337.63;4980121;28;20038;-66
2023/05/14 01:55:14;;;;;;;14.52;9.88;;;;;;;9.61;100.00;101334.16;4974754;28;20774;-67
2023/05/14 01:57:39;;;;;;;12.18;10.00;;;;;;;9.60;100.00;101337.59;4976480;28;20504;-67
2023/05/14 02:00:05;;;;;;;16.17;10.50;;;;;;;9.60;100.00;101337.59;4982378;28;20291;-66
2023/05/14 02:02:31;;;;;;;14.38;10.30;;;;;;;9.59;100.00;101330.72;4984127;28;20065;-66
2023/05/14 02:04:56;;;;;;;14.38;10.77;;;;;;;9.59;100.00;101330.72;4981439;28;20746;-66
2023/05/14 02:07:21;;;;;;;13.90;11.05;;;;;;;9.58;100.00;101328.13;4977758;28;20041;-67
2023/05/14 02:09:47;;;;;;;12.57;10.38;;;;;;;9.56;100.00;101330.66;5003486;28;20051;-67
2023/05/14 02:12:12;;;;;;;14.88;10.27;;;;;;;9.53;100.00;101320.31;4979991;28;20029;-67
2023/05/14 02:14:37;;;;;;;12.93;11.55;;;;;;;9.51;100.00;101323.75;4984288;28;20575;-66
2023/05/14 02:17:03;;;;;;;18.25;11.60;;;;;;;9.50;100.00;101322.88;4983769;28;20041;-66
2023/05/14 02:19:29;;;;;;;18.00;11.50;;;;;;;9.47;100.00;101320.28;4982291;28;20034;-67
2023/05/14 02:21:54;;;;;;;17.58;11.20;;;;;;;9.43;100.00;101321.16;4987256;28;20034;-67
2023/05/14 02:24:20;;;;;;;13.38;10.25;;;;;;;9.40;100.00;101325.44;4979482;28;20050;-67
2023/05/14 02:26:45;;;;;;;15.55;11.68;;;;;;;9.35;100.00;101322.81;4979987;28;20827;-67
2023/05/14 02:29:11;;;;;;;13.35;10.30;;;;;;;9.32;100.00;101322.78;4983182;28;20518;-67
2023/05/14 02:31:36;;;;;;;18.05;11.15;;;;;;;9.29;100.00;101320.19;4982979;28;20035;-67
2023/05/14 02:34:02;;;;;;;14.75;9.73;;;;;;;9.27;100.00;101311.59;4981065;28;20539;-67
2023/05/14 02:36:28;;;;;;;19.55;10.32;;;;;;;9.26;100.00;101309.03;4982209;28;20061;-66
2023/05/14 02:38:53;;;;;;;12.40;10.25;;;;;;;9.23;100.00;101315.00;4972802;28;20535;-66
2023/05/14 02:41:19;;;;;;;18.35;12.07;;;;;;;9.21;100.00;101310.69;4983512;28;20522;-66
2023/05/14 02:43:45;;;;;;;13.07;11.10;;;;;;;9.20;100.00;101314.13;5015169;28;20076;-66
2023/05/14 02:46:10;;;;;;;13.45;10.93;;;;;;;9.16;100.00;101305.53;4982950;28;20045;-66
2023/05/14 02:48:35;;;;;;;15.68;11.73;;;;;;;9.15;100.00;101316.66;4982324;28;20046;-66
2023/05/14 02:51:01;;;;;;;12.95;10.45;;;;;;;9.13;100.00;101308.06;4983043;28;20070;-66
2023/05/14 02:53:26;;;;;;;12.48;10.20;;;;;;;9.07;100.00;101306.31;4985398;28;20026;-67
2023/05/14 02:55:52;;;;;;;15.55;10.50;;;;;;;9.07;100.00;101308.03;4974243;28;20682;-67
2023/05/14 02:58:18;;;;;;;13.63;10.70;;;;;;;9.05;100.00;101307.19;4980945;28;20042;-67
2023/05/14 03:00:43;;;;;;;15.02;11.45;;;;;;;9.03;100.00;101306.28;4975942;28;20153;-66
2023/05/14 03:03:09;;;;;;;15.15;10.23;;;;;;;9.02;100.00;101309.72;4983163;28;20553;-67
2023/05/14 03:05:34;;;;;;;13.70;10.70;;;;;;;9.02;100.00;101302.00;4980688;28;20489;-67
2023/05/14 03:07:59;;;;;;;17.92;12.00;;;;;;;9.03;100.00;101308.84;4979529;28;20038;-67
2023/05/14 03:10:25;;;;;;;14.38;11.82;;;;;;;9.02;100.00;101304.56;4972842;28;20058;-67
2023/05/14 03:12:50;;;;;;;15.90;11.60;;;;;;;8.98;100.00;101295.94;4980481;28;20039;-67
2023/05/14 03:15:16;;;;;;;19.40;12.45;;;;;;;9.00;100.00;101306.25;4980909;28;20457;-66
2023/05/14 03:17:41;;;;;;;15.45;11.95;;;;;;;8.96;100.00;101297.63;4979097;28;20038;-66
2023/05/14 03:20:07;;;;;;;15.00;11.65;;;;;;;8.89;100.00;101297.59;4975654;28;20043;-67
2023/05/14 03:22:32;;;;;;;13.70;9.98;;;;;;;8.84;100.00;101296.72;4977026;28;20035;-67
2023/05/14 03:24:58;;;;;;;14.10;10.23;;;;;;;8.81;100.00;101300.09;4980076;28;20034;-66
2023/05/14 03:27:23;;;;;;;12.43;10.70;;;;;;;8.76;100.00;101288.91;4973824;28;20721;-67
2023/05/14 03:29:48;;;;;;;14.52;11.95;;;;;;;8.76;100.00;101294.06;4980728;28;20034;-66
2023/05/14 03:32:14;;;;;;;13.75;11.05;;;;;;;8.74;100.00;101292.34;4979501;28;20482;-67
2023/05/14 03:34:39;;;;;;;12.07;10.10;;;;;;;8.72;100.00;101296.63;4979342;28;20041;-66
2023/05/14 03:37:05;;;;;;;13.15;10.75;;;;;;;8.69;100.00;101306.91;4979635;28;20046;-67
2023/05/14 03:39:30;;;;;;;11.70;9.98;;;;;;;8.65;100.00;101308.59;4977663;28;20030;-67
2023/05/14 03:41:57;;;;;;;13.15;10.18;;;;;;;8.64;100.00;101301.69;4977950;28;20038;-67
2023/05/14 03:44:23;;;;;;;14.15;11.55;;;;;;;8.65;100.00;101308.59;4975510;28;20070;-67
2023/05/14 03:46:48;;;;;;;15.38;12.00;;;;;;;8.72;100.00;101306.94;4979991;28;20128;-67
2023/05/14 03:49:14;;;;;;;14.40;11.82;;;;;;;8.74;100.00;101312.94;4983465;28;20065;-67
2023/05/14 03:51:39;;;;;;;24.10;15.13;;;;;;;8.76;100.00;101309.53;4981260;28;20133;-67
2023/05/14 03:54:05;;;;;;;39.10;17.20;;;;;;;8.78;100.00;101304.41;4982211;28;20037;-67
2023/05/14 03:56:31;;;;;;;30.60;16.17;;;;;;;8.79;100.00;101303.53;4977646;28;20026;-67
2023/05/14 03:58:56;;;;;;;33.70;17.08;;;;;;;8.79;100.00;101313.84;4983842;28;20088;-67
2023/05/14 04:01:22;;;;;;;26.73;15.30;;;;;;;8.78;100.00;101304.41;4983711;28;20399;-67
2023/05/14 04:03:47;;;;;;;23.98;14.05;;;;;;;8.77;100.00;101308.69;4982836;28;20073;-67
2023/05/14 04:06:12;;;;;;;23.00;13.93;;;;;;;8.78;100.00;101304.41;4982788;28;20038;-68
2023/05/14 04:08:38;;;;;;;39.25;14.63;;;;;;;8.73;100.00;101308.63;4982169;28;20030;-67
2023/05/14 04:11:03;;;;;;;38.28;14.15;;;;;;;8.70;100.00;101301.75;4982255;28;20042;-67
2023/05/14 04:13:29;;;;;;;21.40;13.00;;;;;;;8.73;100.00;101309.50;4985775;28;20061;-67
2023/05/14 04:15:54;;;;;;;24.83;13.23;;;;;;;8.77;100.00;101306.09;4988018;28;20038;-67
2023/05/14 04:18:19;;;;;;;19.20;11.65;;;;;;;8.84;100.00;101301.88;4980276;28;20054;-68
2023/05/14 04:20:45;;;;;;;24.30;13.95;;;;;;;8.82;100.00;101306.13;4981717;28;20078;-68
2023/05/14 04:23:10;;;;;;;22.55;14.18;;;;;;;8.85;100.00;101304.44;4979267;28;20062;-67
2023/05/14 04:25:35;;;;;;;29.77;15.50;;;;;;;8.91;100.00;101306.19;4979218;28;20031;-67
2023/05/14 04:28:01;;;;;;;43.75;16.83;;;;;;;8.92;100.00;101301.06;4981334;28;20037;-67
2023/05/14 04:30:26;;;;;;;34.88;16.55;;;;;;;8.98;100.00;101301.09;4985088;28;20042;-67
2023/05/14 04:32:52;;;;;;;57.60;18.08;;;;;;;9.04;100.00;101302.88;4981703;28;20034;-67
2023/05/14 04:35:17;;;;;;;92.22;20.17;;;;;;;9.09;100.00;101298.59;4981471;28;20049;-67
2023/05/14 04:37:42;;;;;;;82.32;20.35;;;;;;;9.12;100.00;101294.31;4975164;28;20038;-67
2023/05/14 04:40:12;;;;;;;148.55;23.65;;;;;;;9.22;100.00;101296.94;4976537;28;20049;-68
2023/05/14 04:42:38;;;;;;;92.05;19.52;;;;;;;9.22;100.00;101299.53;4982283;28;20133;-67
2023/05/14 04:45:05;;;;;;;146.48;23.98;;;;;;;9.17;100.00;101296.91;4979392;28;20038;-67
2023/05/14 04:47:31;;;;;;;166.75;25.08;;;;;;;9.13;100.00;101300.34;4979804;28;20535;-67
2023/05/14 04:49:56;;;;;;;93.72;20.50;;;;;;;9.24;100.00;101306.41;4980911;28;20073;-67
2023/05/14 04:52:22;;;;;;;147.30;25.88;;;;;;;9.36;100.00;101309.06;4984274;28;20052;-67
2023/05/14 04:54:48;;;;;;;157.07;24.45;;;;;;;9.41;100.00;101311.66;4975996;28;20038;-68
2023/05/14 04:57:14;;;;;;;123.68;20.77;;;;;;;9.49;100.00;101322.91;4974729;28;20727;-67
2023/05/14 04:59:39;;;;;;;152.07;25.85;;;;;;;9.59;100.00;101320.38;4984211;28;20030;-67
2023/05/14 05:02:04;;;;;;;80.13;21.85;;;;;;;9.70;100.00;101314.41;4981701;28;20046;-66
2023/05/14 05:04:30;;;;;;;60.55;18.25;;;;;;;9.72;100.00;101323.03;4977605;28;20045;-67
2023/05/14 05:06:55;;;;;;;64.38;16.42;;;;;;;9.70;100.00;101324.75;4977292;28;20454;-67
2023/05/14 05:09:21;;;;;;;26.90;14.60;;;;;;;9.74;100.00;101323.88;4982221;28;20066;-67
2023/05/14 05:11:46;;;;;;;28.70;15.48;;;;;;;9.79;100.00;101324.78;4982106;28;20062;-67
2023/05/14 05:14:11;;;;;;;20.77;14.55;;;;;;;9.80;100.00;101323.91;4979488;28;20062;-67
2023/05/14 05:16:37;;;;;;;21.13;13.85;;;;;;;9.79;100.00;101322.19;4980794;28;20117;-67
2023/05/14 05:19:02;;;;;;;17.73;14.32;;;;;;;9.79;100.00;101323.06;4981679;28;20582;-67
2023/05/14 05:21:28;;;;;;;19.42;14.00;;;;;;;9.86;100.00;101319.63;4979269;28;20031;-67
2023/05/14 05:23:53;;;;;;;17.27;13.98;;;;;;;9.85;100.00;101317.88;4981935;28;20073;-67
2023/05/14 05:26:18;;;;;;;16.90;13.25;;;;;;;9.92;100.00;101321.38;4982453;28;20047;-67
2023/05/14 05:28:44;;;;;;;17.23;14.13;;;;;;;10.01;100.00;101321.38;4976055;28;20038;-67
2023/05/14 05:31:09;;;;;;;17.10;13.75;;;;;;;10.05;100.00;101318.84;4981692;28;20061;-68
2023/05/14 05:33:35;;;;;;;16.63;13.80;;;;;;;10.19;100.00;101321.44;4982602;28;20092;-67
2023/05/14 05:36:00;;;;;;;18.52;14.35;;;;;;;10.19;100.00;101326.59;4980823;28;20033;-67
2023/05/14 05:38:26;;;;;;;15.43;12.95;;;;;;;10.21;100.00;101322.28;4981181;28;20547;-67
2023/05/14 05:40:51;;;;;;;18.38;13.85;;;;;;;10.25;100.00;101326.63;4983160;28;20084;-67
2023/05/14 05:43:17;;;;;;;18.70;14.80;;;;;;;10.38;100.00;101324.94;4981833;28;20899;-67
2023/05/14 05:45:42;;;;;;;20.23;15.38;;;;;;;10.54;100.00;101317.16;4974630;28;20049;-67
2023/05/14 05:48:08;;;;;;;19.45;15.38;;;;;;;10.59;100.00;101325.81;4979279;28;20026;-67
2023/05/14 05:50:33;;;;;;;26.58;18.55;;;;;;;10.65;100.00;101312.84;4981016;28;20730;-68
2023/05/14 05:52:59;;;;;;;26.83;17.58;;;;;;;10.82;100.00;101315.47;4981788;28;20674;-67
2023/05/14 05:55:24;;;;;;;22.55;16.58;;;;;;;10.98;100.00;101313.72;4975367;28;20324;-67
2023/05/14 05:57:50;;;;;;;23.35;17.65;;;;;;;11.01;100.00;101309.38;4978483;28;20034;-67
2023/05/14 06:00:16;;;;;;;20.90;16.00;;;;;;;11.18;100.00;101310.25;4980196;28;20451;-67
2023/05/14 06:02:42;;;;;;;20.90;16.33;;;;;;;11.43;100.00;101313.63;4983905;28;20069;-67
2023/05/14 06:05:09;;;;;;;25.33;16.67;;;;;;;11.58;100.00;101311.00;4979894;28;20041;-67
2023/05/14 06:07:34;;;;;;;24.20;17.35;;;;;;;11.62;99.09;101307.53;4979465;28;20674;-67
2023/05/14 06:10:00;;;;;;;21.15;15.90;;;;;;;11.84;98.42;101306.56;4980471;28;20056;-67
2023/05/14 06:12:25;;;;;;;24.85;17.05;;;;;;;11.90;97.89;101306.53;4981636;28;20050;-68
2023/05/14 06:14:54;;;;;;;20.38;16.27;;;;;;;12.01;96.49;101301.31;4979406;28;20503;-67
2023/05/14 06:17:19;;;;;;;22.50;16.55;;;;;;;12.11;95.88;101318.50;4982231;28;20606;-67
2023/05/14 06:19:44;;;;;;;21.77;16.00;;;;;;;12.17;94.89;101317.59;4975656;28;20053;-67
2023/05/14 06:22:10;;;;;;;20.30;15.75;;;;;;;12.02;94.58;101320.31;4982353;28;20180;-67
2023/05/14 06:24:35;;;;;;;20.20;15.20;;;;;;;12.06;94.67;101324.59;4979742;28;20050;-68
2023/05/14 06:27:00;;;;;;;20.55;16.23;;;;;;;12.03;94.92;101327.19;4975692;28;20444;-67
2023/05/14 06:29:26;;;;;;;20.50;15.55;;;;;;;11.85;94.67;101331.59;4978810;28;20843;-67
2023/05/14 06:31:51;;;;;;;21.33;16.17;;;;;;;11.78;95.19;101322.13;4982056;28;20042;-67
2023/05/14 06:34:17;;;;;;;22.23;17.25;;;;;;;11.75;95.99;101322.16;4979110;28;20089;-67
2023/05/14 06:36:42;;;;;;;22.33;17.50;;;;;;;11.79;96.86;101323.88;4978850;28;20957;-67
2023/05/14 06:39:07;;;;;;;25.85;18.08;;;;;;;11.91;97.01;101325.53;4977333;28;20045;-67
2023/05/14 06:41:33;;;;;;;22.45;17.65;;;;;;;11.94;96.82;101330.69;4981034;28;20115;-67
2023/05/14 06:43:58;;;;;;;24.52;18.00;;;;;;;11.93;96.47;101331.56;4976917;28;20532;-67
2023/05/14 06:46:23;;;;;;;26.88;18.70;;;;;;;11.90;97.38;101323.81;4976489;28;22043;-66
2023/05/14 06:48:49;;;;;;;27.23;19.35;;;;;;;11.94;98.15;101319.47;4975578;28;20038;-67
2023/05/14 06:51:14;;;;;;;26.35;18.52;;;;;;;11.88;98.75;101313.47;4967603;28;20165;-67
2023/05/14 06:53:40;;;;;;;23.95;17.55;;;;;;;11.88;97.89;101313.47;4970600;28;20121;-67
2023/05/14 06:56:05;;;;;;;25.67;18.83;;;;;;;11.93;97.52;101312.59;4967083;28;20430;-67
2023/05/14 06:58:31;;;;;;;25.80;19.23;;;;;;;12.00;97.20;101309.06;4969833;28;20044;-66
2023/05/14 07:00:57;;;;;;;23.83;17.73;;;;;;;12.12;97.31;101309.00;4982010;28;20149;-66
2023/05/14 07:03:22;;;;;;;25.30;18.25;;;;;;;12.27;96.70;101312.38;4982642;28;20851;-66
2023/05/14 07:05:48;;;;;;;27.45;18.23;;;;;;;12.38;96.39;101312.28;4980538;28;20034;-66
2023/05/14 07:08:14;;;;;;;25.02;19.05;;;;;;;12.52;95.62;101307.03;4978861;28;20062;-66
2023/05/14 07:10:39;;;;;;;26.35;19.02;;;;;;;12.54;95.46;101307.84;4979280;28;20035;-66
2023/05/14 07:13:05;;;;;;;26.17;19.20;;;;;;;12.61;94.85;101302.63;4976944;28;20038;-68
2023/05/14 07:15:30;;;;;;;28.40;18.77;;;;;;;12.79;94.25;101306.78;4979025;28;20042;-67
2023/05/14 07:17:56;;;;;;;25.27;19.27;;;;;;;12.97;94.10;101317.84;4978669;28;20034;-67
2023/05/14 07:20:22;;;;;;;25.90;19.45;;;;;;;13.16;94.68;101313.38;4979847;28;20042;-67
2023/05/14 07:22:48;;;;;;;23.77;19.17;;;;;;;13.28;93.87;101310.66;4982347;28;20042;-67
2023/05/14 07:25:17;;;;;;;28.52;19.10;;;;;;;13.25;91.53;101315.00;4984184;28;20138;-67
2023/05/14 07:27:43;;;;;;;21.85;18.27;;;;;;;13.32;90.62;101307.16;4963509;28;20051;-67
2023/05/14 07:30:08;;;;;;;23.17;18.40;;;;;;;13.39;89.62;101300.13;4985185;28;20487;-67
2023/05/14 07:32:34;;;;;;;24.05;17.92;;;;;;;13.44;89.97;101299.22;4984542;28;20026;-67
2023/05/14 07:35:00;;;;;;;25.70;19.00;;;;;;;13.50;89.70;101299.13;4981899;28;20046;-67
2023/05/14 07:37:25;;;;;;;24.40;18.40;;;;;;;13.57;88.36;101298.19;4985712;28;20049;-67
2023/05/14 07:39:51;;;;;;;20.80;16.42;;;;;;;13.70;88.39;101291.13;4963659;28;20042;-65
2023/05/14 07:42:17;;;;;;;22.30;16.42;;;;;;;13.70;86.67;101283.31;4982120;28;20026;-65
2023/05/14 07:44:42;;;;;;;21.10;16.50;;;;;;;13.78;85.94;101293.59;4979443;28;20109;-65
2023/05/14 07:47:08;;;;;;;17.70;12.93;;;;;;;13.83;84.36;101282.25;4980470;28;20204;-65
2023/05/14 07:49:34;;;;;;;16.63;12.85;;;;;;;13.97;82.25;101277.75;4985008;28;20069;-65
2023/05/14 07:51:59;;;;;;;16.92;12.13;;;;;;;14.10;82.02;101276.69;4980123;28;20042;-63
2023/05/14 07:54:24;;;;;;;13.57;12.00;;;;;;;14.24;82.22;101281.69;4984730;28;20169;-64
2023/05/14 07:56:50;;;;;;;15.20;12.00;;;;;;;14.37;81.98;101278.00;4979222;28;20058;-63
2023/05/14 07:59:16;;;;;;;14.32;11.07;;;;;;;14.45;80.35;101272.72;4980795;28;20147;-63
2023/05/14 08:01:41;;;;;;;12.60;10.60;;;;;;;14.57;80.85;101268.16;4984756;28;20064;-63
2023/05/14 08:04:06;;;;;;;12.63;9.35;;;;;;;14.68;77.43;101256.72;4982280;28;20043;-63
2023/05/14 08:06:32;;;;;;;12.45;10.52;;;;;;;14.81;77.58;101269.50;4982472;28;20042;-64
2023/05/14 08:08:58;;;;;;;14.75;10.65;;;;;;;14.88;77.69;101265.91;4978903;28;20166;-63
2023/05/14 08:11:23;;;;;;;13.40;9.90;;;;;;;14.93;78.39;101268.44;4982828;28;20066;-63
2023/05/14 08:13:49;;;;;;;13.30;8.55;;;;;;;15.02;78.57;101261.28;4986525;28;20042;-63
2023/05/14 08:16:14;;;;;;;9.82;8.25;;;;;;;15.14;77.67;101253.25;4982789;28;20056;-64
2023/05/14 08:18:40;;;;;;;9.75;8.60;;;;;;;15.19;74.42;101219.31;4986246;28;20049;-64
2023/05/14 08:21:05;;;;;;;10.27;8.55;;;;;;;15.35;75.12;101236.34;4982868;28;20073;-64
2023/05/14 08:23:31;;;;;;;9.73;7.38;;;;;;;15.49;71.88;101197.84;4981150;28;20554;-63
2023/05/14 08:25:56;;;;;;;9.95;7.25;;;;;;;15.61;71.79;101201.94;4977668;28;20125;-64
2023/05/14 08:28:22;;;;;;;7.50;6.28;;;;;;;15.73;70.98;101197.31;4985446;28;20038;-63
2023/05/14 08:30:47;;;;;;;8.65;7.07;;;;;;;15.85;67.21;101143.22;4986091;28;20141;-63
2023/05/14 08:33:12;;;;;;;11.70;6.68;;;;;;;15.97;66.88;101142.94;4980907;28;20055;-63
2023/05/14 08:35:38;;;;;;;10.00;6.18;;;;;;;16.09;65.70;101134.78;4981587;28;20031;-64
2023/05/14 08:38:03;;;;;;;7.80;7.00;;;;;;;16.18;66.44;101158.88;4982652;28;20036;-63
2023/05/14 08:40:29;;;;;;;10.07;6.00;;;;;;;16.30;66.21;101155.09;4978352;28;20042;-64
2023/05/14 08:42:55;;;;;;;8.50;6.53;;;;;;;16.35;67.07;101163.69;5006025;28;20046;-63
2023/05/14 08:45:26;;;;;;;7.68;6.03;;;;;;;16.42;68.09;101185.22;4977961;28;20069;-63
2023/05/14 08:47:54;;;;;;;6.85;6.15;;;;;;;16.56;67.47;101168.31;4985276;28;20670;-64
2023/05/14 08:50:21;;;;;;;6.57;5.97;;;;;;;16.77;65.50;101144.28;4984899;28;20035;-63
2023/05/14 08:52:47;;;;;;;7.07;5.82;;;;;;;16.83;63.27;101102.34;4980642;28;20108;-63
2023/05/14 08:55:12;;;;;;;8.90;5.90;;;;;;;16.78;64.30;101127.72;4976084;28;20498;-63
2023/05/14 08:57:38;;;;;;;6.07;4.90;;;;;;;16.89;64.66;101134.41;4978849;28;20065;-63
2023/05/14 09:00:07;;;;;;;5.90;5.30;;;;;;;17.00;65.29;101142.78;4985963;28;20030;-64
2023/05/14 09:02:34;;;;;;;10.05;5.88;;;;;;;17.12;67.28;101179.00;4982690;28;20129;-63
2023/05/14 09:05:01;;;;;;;7.20;5.97;;;;;;;17.25;65.99;101146.38;4982221;28;20462;-64
2023/05/14 09:07:27;;;;;;;8.68;5.97;;;;;;;17.49;68.43;101202.28;4982378;28;20460;-63
2023/05/14 09:09:53;;;;;;;6.75;5.75;;;;;;;17.62;65.86;101147.00;4981399;28;20050;-64
2023/05/14 09:12:19;;;;;;;7.88;5.82;;;;;;;17.73;65.46;101142.28;4985931;28;20031;-64
2023/05/14 09:14:46;;;;;;;6.90;5.70;;;;;;;17.69;63.52;101108.44;4984825;28;20034;-63
2023/05/14 09:17:11;;;;;;;6.43;5.43;;;;;;;17.82;65.09;101139.38;4980872;28;20582;-61
2023/05/14 09:19:41;;;;;;;6.95;6.25;;;;;;;17.80;63.56;101103.72;4980393;28;20046;-61
2023/05/14 09:22:15;;;;;;;6.03;5.43;;;;;;;17.85;63.15;101100.09;4982885;28;20034;-61
2023/05/14 09:24:40;;;;;;;5.80;5.30;;;;;;;17.91;63.09;101104.25;4982800;28;20096;-61
2023/05/14 09:27:08;;;;;;;5.88;5.28;;;;;;;17.92;61.03;101059.75;4978845;28;20689;-61
2023/05/14 09:29:33;;;;;;;7.20;5.28;;;;;;;17.89;60.98;101052.00;4981484;28;20030;-61
2023/05/14 09:32:04;;;;;;;5.68;4.75;;;;;;;17.94;61.86;101081.47;4988057;28;20128;-61
2023/05/14 09:34:36;;;;;;;5.85;4.78;;;;;;;18.12;61.95;101076.50;4980146;28;20030;-61
2023/05/14 09:37:04;;;;;;;5.85;5.18;;;;;;;18.22;62.88;101093.63;4980771;28;20503;-62
2023/05/14 09:39:30;;;;;;;7.00;6.30;;;;;;;18.18;61.01;101056.22;4982423;28;20042;-62
2023/05/14 09:41:56;;;;;;;5.97;5.00;;;;;;;18.25;59.19;101020.25;4979358;28;20057;-62
2023/05/14 09:44:22;;;;;;;6.18;5.28;;;;;;;18.25;60.95;101052.50;4981381;28;20057;-61
2023/05/14 09:46:48;;;;;;;5.22;4.63;;;;;;;18.36;60.79;101060.81;4983584;28;20053;-61
2023/05/14 09:49:13;;;;;;;6.10;4.88;;;;;;;18.51;60.93;101056.81;4987947;28;20027;-61
2023/05/14 09:51:39;;;;;;;5.05;4.55;;;;;;;18.70;60.71;101052.59;4984257;28;20092;-61
2023/05/14 09:54:05;;;;;;;5.85;4.93;;;;;;;18.68;59.72;101032.59;4983985;28;20025;-62
2023/05/14 09:56:35;;;;;;;5.18;4.68;;;;;;;18.69;58.07;100993.28;4983488;28;20124;-61
2023/05/14 09:59:01;;;;;;;5.72;4.97;;;;;;;18.70;58.93;101026.38;4978821;28;20121;-61
2023/05/14 10:01:28;;;;;;;5.68;5.18;;;;;;;18.75;59.70;101034.09;4976606;28;20034;-61
2023/05/14 10:03:55;;;;;;;7.82;4.97;;;;;;;18.75;59.14;101029.72;4985934;28;20592;-61
2023/05/14 10:06:26;;;;;;;5.40;4.90;;;;;;;18.80;59.03;101011.19;4980425;28;20041;-62
2023/05/14 10:08:55;;;;;;;6.93;5.05;;;;;;;18.86;58.81;101013.63;4981581;28;20084;-61
2023/05/14 10:11:27;;;;;;;5.57;4.78;;;;;;;18.86;57.84;101000.50;4979774;28;20038;-61
2023/05/14 10:14:04;;;;;;;7.65;4.82;;;;;;;18.98;57.95;100993.03;4979423;28;20037;-62
2023/05/14 10:16:36;;;;;;;5.60;4.43;;;;;;;19.18;57.50;100996.63;4974865;28;20038;-62
2023/05/14 10:19:10;;;;;;;5.72;4.38;;;;;;;19.39;60.48;101037.69;4984313;28;20042;-62
2023/05/14 10:21:36;;;;;;;6.10;5.45;;;;;;;19.41;57.13;100971.19;4981227;28;20107;-63
2023/05/14 10:24:04;;;;;;;5.68;5.07;;;;;;;19.43;57.37;100972.00;4983236;28;20029;-62
2023/05/14 10:26:31;;;;;;;4.85;3.80;;;;;;;19.74;58.36;100992.53;4968673;28;20038;-62
2023/05/14 10:28:57;;;;;;;3.88;3.53;;;;;;;19.88;58.06;100981.50;4980471;28;20086;-62
2023/05/14 10:31:23;;;;;;;11.45;5.28;;;;;;;20.12;57.32;100989.16;4980373;28;20138;-62
2023/05/14 10:33:49;;;;;;;4.57;4.10;;;;;;;20.22;54.48;100923.09;4981953;28;20577;-62
2023/05/14 10:36:19;;;;;;;6.93;4.57;;;;;;;20.26;56.05;100959.66;4980394;28;20519;-62
2023/05/14 10:38:45;;;;;;;6.38;4.45;;;;;;;20.15;55.45;100952.28;4976574;28;20551;-62
2023/05/14 10:41:14;;;;;;;4.55;4.07;;;;;;;20.07;53.22;100909.75;4980747;28;20081;-62
2023/05/14 10:43:40;;;;;;;6.22;3.67;;;;;;;20.41;52.75;100897.72;4980511;28;20034;-62
2023/05/14 10:46:07;;;;;;;4.13;3.50;;;;;;;20.55;50.81;100864.63;4977964;28;20038;-62
2023/05/14 10:48:33;;;;;;;3.67;3.28;;;;;;;20.78;50.86;100866.16;4980337;28;20038;-62
2023/05/14 10:51:00;;;;;;;4.97;3.30;;;;;;;21.13;50.97;100867.94;4982301;28;20748;-63
2023/05/14 10:53:32;;;;;;;5.45;3.42;;;;;;;21.43;49.92;100843.63;4979799;28;20045;-62
2023/05/14 10:56:03;;;;;;;3.90;3.50;;;;;;;21.44;47.27;100804.09;4978109;28;20050;-63
2023/05/14 10:58:31;;;;;;;7.10;3.80;;;;;;;21.62;49.92;100847.03;4982477;28;20828;-63
2023/05/14 11:00:56;;;;;;;3.70;3.40;;;;;;;21.66;47.74;100799.44;4984398;28;20039;-63
2023/05/14 11:03:22;;;;;;;3.45;3.15;;;;;;;21.78;48.50;100816.34;4978369;28;20065;-62
2023/05/14 11:05:48;;;;;;;3.67;3.28;;;;;;;22.14;46.60;100780.13;4993059;28;20049;-62
2023/05/14 11:08:14;;;;;;;3.75;3.13;;;;;;;21.91;46.92;100798.13;4980887;28;20038;-62